sensor_id;sensor_type;location;lat;lon;timestamp;pressure;altitude;pressure_sealevel;temperature;humidity
5238;BME280;2639;49.700;7.962;2023-12-29T10:05:35;98544.41;;;9.92;99.17
5238;BME280;2639;49.700;7.962;2023-12-29T10:06:41;98559.88;;;9.93;98.90
5238;BME280;2639;49.700;7.962;2023-12-29T10:07:52;98553.88;;;9.93;99.38
5238;BME280;2639;49.700;7.962;2023-12-29T10:08:56;98561.34;;;9.89;99.17
5238;BME280;2639;49.700;7.962;2023-12-29T10:10:01;98553.66;;;9.89;99.10
5238;BME280;2639;49.700;7.962;2023-12-29T10:11:07;98555.69;;;9.94;99.24
5238;BME280;2639;49.700;7.962;2023-12-29T10:12:10;98550.56;;;9.94;98.65
5238;BME280;2639;49.700;7.962;2023-12-29T10:13:13;98554.66;;;9.92;99.26
5238;BME280;2639;49.700;7.962;2023-12-29T10:14:22;98559.69;;;9.90;98.57
5238;BME280;2639;49.700;7.962;2023-12-29T10:15:32;98546.19;;;9.93;98.08
5238;BME280;2639;49.700;7.962;2023-12-29T10:16:41;98555.69;;;9.94;98.12
5238;BME280;2639;49.700;7.962;2023-12-29T10:17:51;98552.88;;;9.90;97.58
5238;BME280;2639;49.700;7.962;2023-12-29T10:19:00;98556.34;;;9.91;97.89
5238;BME280;2639;49.700;7.962;2023-12-29T10:20:15;98551.44;;;9.94;97.96
5238;BME280;2639;49.700;7.962;2023-12-29T10:21:27;98545.09;;;10.01;96.90
5238;BME280;2639;49.700;7.962;2023-12-29T10:22:38;98542.53;;;10.01;96.54
5238;BME280;2639;49.700;7.962;2023-12-29T10:23:50;98550.97;;;10.00;96.57
5238;BME280;2639;49.700;7.962;2023-12-29T10:24:55;98545.09;;;10.01;96.44
5238;BME280;2639;49.700;7.962;2023-12-29T10:25:58;98547.19;;;10.06;96.88
5238;BME280;2639;49.700;7.962;2023-12-29T10:27:01;98547.09;;;10.05;96.14
5238;BME280;2639;49.700;7.962;2023-12-29T10:28:03;98547.09;;;10.05;95.92
5238;BME280;2639;49.700;7.962;2023-12-29T10:29:06;98546.84;;;10.02;95.55
5238;BME280;2639;49.700;7.962;2023-12-29T10:30:10;98534.81;;;10.01;96.64
5238;BME280;2639;49.700;7.962;2023-12-29T10:31:28;98540.97;;;10.03;96.30
5238;BME280;2639;49.700;7.962;2023-12-29T10:32:30;98547.88;;;10.04;96.37
5238;BME280;2639;49.700;7.962;2023-12-29T10:33:34;98556.78;;;10.09;96.98
5238;BME280;2639;49.700;7.962;2023-12-29T10:34:37;98549.88;;;10.08;95.95
5238;BME280;2639;49.700;7.962;2023-12-29T10:35:40;98542.06;;;10.06;96.01
5238;BME280;2639;49.700;7.962;2023-12-29T10:36:50;98544.75;;;10.08;96.04
5238;BME280;2639;49.700;7.962;2023-12-29T10:37:52;98539.41;;;10.05;95.10
5238;BME280;2639;49.700;7.962;2023-12-29T10:39:06;98545.31;;;10.04;96.21
5238;BME280;2639;49.700;7.962;2023-12-29T10:40:08;98532.94;;;9.98;95.64
5238;BME280;2639;49.700;7.962;2023-12-29T10:41:12;98538.94;;;9.99;95.38
5238;BME280;2639;49.700;7.962;2023-12-29T10:42:14;98535.50;;;9.98;95.95
5238;BME280;2639;49.700;7.962;2023-12-29T10:43:22;98536.50;;;10.00;95.94
5238;BME280;2639;49.700;7.962;2023-12-29T10:44:24;98535.59;;;10.00;96.49
5238;BME280;2639;49.700;7.962;2023-12-29T10:45:27;98539.84;;;9.99;96.13
5238;BME280;2639;49.700;7.962;2023-12-29T10:46:29;98542.28;;;9.98;95.97
5238;BME280;2639;49.700;7.962;2023-12-29T10:47:32;98538.72;;;9.96;96.36
5238;BME280;2639;49.700;7.962;2023-12-29T10:48:35;98528.47;;;9.96;96.23
5238;BME280;2639;49.700;7.962;2023-12-29T10:49:39;98541.63;;;10.00;95.80
5238;BME280;2639;49.700;7.962;2023-12-29T10:50:43;98536.59;;;10.02;95.84
5238;BME280;2639;49.700;7.962;2023-12-29T10:51:48;98530.47;;;10.00;95.56
5238;BME280;2639;49.700;7.962;2023-12-29T10:52:50;98536.59;;;10.02;95.44
5238;BME280;2639;49.700;7.962;2023-12-29T10:53:55;98525.78;;;10.06;95.72
5238;BME280;2639;49.700;7.962;2023-12-29T10:55:05;98518.31;;;10.09;95.53
5238;BME280;2639;49.700;7.962;2023-12-29T10:56:17;98521.78;;;10.09;95.39
5238;BME280;2639;49.700;7.962;2023-12-29T10:57:22;98513.97;;;10.08;95.50
5238;BME280;2639;49.700;7.962;2023-12-29T10:58:25;98513.19;;;10.09;95.21
5238;BME280;2639;49.700;7.962;2023-12-29T10:59:29;98513.97;;;10.08;95.78
5238;BME280;2639;49.700;7.962;2023-12-29T11:00:32;98511.75;;;10.13;95.52
5238;BME280;2639;49.700;7.962;2023-12-29T11:01:35;98519.53;;;10.14;95.03
5238;BME280;2639;49.700;7.962;2023-12-29T11:02:38;98512.63;;;10.13;95.42
5238;BME280;2639;49.700;7.962;2023-12-29T11:03:41;98506.28;;;10.08;95.83
5238;BME280;2639;49.700;7.962;2023-12-29T11:04:45;98516.66;;;10.09;95.48
5238;BME280;2639;49.700;7.962;2023-12-29T11:05:48;98514.97;;;10.10;96.15
5238;BME280;2639;49.700;7.962;2023-12-29T11:06:52;98516.75;;;10.11;95.84
5238;BME280;2639;49.700;7.962;2023-12-29T11:07:55;98518.44;;;10.10;96.63
5238;BME280;2639;49.700;7.962;2023-12-29T11:09:00;98515.06;;;10.11;95.57
5238;BME280;2639;49.700;7.962;2023-12-29T11:10:04;98520.09;;;10.10;95.75
5238;BME280;2639;49.700;7.962;2023-12-29T11:11:07;98514.19;;;10.11;95.59
5238;BME280;2639;49.700;7.962;2023-12-29T11:12:11;98509.25;;;10.14;96.92
5238;BME280;2639;49.700;7.962;2023-12-29T11:13:15;98517.09;;;10.16;96.58
5238;BME280;2639;49.700;7.962;2023-12-29T11:14:21;98516.41;;;10.18;96.63
5238;BME280;2639;49.700;7.962;2023-12-29T11:15:24;98520.78;;;10.19;95.74
5238;BME280;2639;49.700;7.962;2023-12-29T11:16:27;98514.84;;;10.20;95.42
5238;BME280;2639;49.700;7.962;2023-12-29T11:17:35;98519.97;;;10.20;95.31
5238;BME280;2639;49.700;7.962;2023-12-29T11:18:37;98518.22;;;10.19;95.33
5238;BME280;2639;49.700;7.962;2023-12-29T11:19:43;98514.41;;;10.14;95.68
5238;BME280;2639;49.700;7.962;2023-12-29T11:20:47;98511.81;;;10.14;95.45
5238;BME280;2639;49.700;7.962;2023-12-29T11:21:54;98523.91;;;10.15;96.23
5238;BME280;2639;49.700;7.962;2023-12-29T11:22:56;98530.13;;;10.19;96.96
5238;BME280;2639;49.700;7.962;2023-12-29T11:29:09;98521.31;;;10.15;96.31
5238;BME280;2639;49.700;7.962;2023-12-29T11:30:14;98527.56;;;10.19;96.91
5238;BME280;2639;49.700;7.962;2023-12-29T11:31:16;98528.00;;;10.25;96.25
5238;BME280;2639;49.700;7.962;2023-12-29T11:32:24;98522.13;;;10.26;96.12
5238;BME280;2639;49.700;7.962;2023-12-29T11:33:31;98532.38;;;10.26;94.92
5238;BME280;2639;49.700;7.962;2023-12-29T11:34:48;98527.13;;;10.24;95.30
5238;BME280;2639;49.700;7.962;2023-12-29T11:35:55;98526.44;;;10.27;94.88
5238;BME280;2639;49.700;7.962;2023-12-29T11:37:10;98534.38;;;10.30;94.99
5238;BME280;2639;49.700;7.962;2023-12-29T11:38:26;98529.38;;;10.31;94.71
5238;BME280;2639;49.700;7.962;2023-12-29T11:39:38;98529.81;;;10.26;93.23
5238;BME280;2639;49.700;7.962;2023-12-29T11:40:48;98537.59;;;10.27;94.47
5238;BME280;2639;49.700;7.962;2023-12-29T11:41:58;98526.03;;;10.32;94.37
5238;BME280;2639;49.700;7.962;2023-12-29T11:43:10;98533.41;;;10.40;94.03
5238;BME280;2639;49.700;7.962;2023-12-29T11:44:24;98533.63;;;10.43;94.06
5238;BME280;2639;49.700;7.962;2023-12-29T11:45:29;98536.94;;;10.42;93.98
5238;BME280;2639;49.700;7.962;2023-12-29T11:46:34;98530.25;;;10.44;93.06
5238;BME280;2639;49.700;7.962;2023-12-29T11:47:37;98532.06;;;10.45;92.47
5238;BME280;2639;49.700;7.962;2023-12-29T11:48:53;98525.13;;;10.44;93.00
5238;BME280;2639;49.700;7.962;2023-12-29T11:49:59;98518.91;;;10.40;93.39
5238;BME280;2639;49.700;7.962;2023-12-29T11:51:29;98512.88;;;10.40;92.89
5238;BME280;2639;49.700;7.962;2023-12-29T11:52:34;98511.53;;;10.33;92.62
5238;BME280;2639;49.700;7.962;2023-12-29T11:53:37;98521.22;;;10.37;93.78
5238;BME280;2639;49.700;7.962;2023-12-29T11:54:39;98517.75;;;10.25;93.28
5238;BME280;2639;49.700;7.962;2023-12-29T11:55:42;98507.59;;;10.26;93.89
5238;BME280;2639;49.700;7.962;2023-12-29T11:56:45;98505.03;;;10.26;93.94
5238;BME280;2639;49.700;7.962;2023-12-29T11:57:47;98508.66;;;10.28;93.58
5238;BME280;2639;49.700;7.962;2023-12-29T11:58:49;98510.63;;;10.32;94.23
5238;BME280;2639;49.700;7.962;2023-12-29T11:59:53;98504.06;;;10.36;94.38
5238;BME280;2639;49.700;7.962;2023-12-29T12:00:55;98502.38;;;10.37;94.14
5238;BME280;2639;49.700;7.962;2023-12-29T12:01:58;98506.16;;;10.42;94.26
5238;BME280;2639;49.700;7.962;2023-12-29T12:03:13;98499.44;;;10.44;94.38
5238;BME280;2639;49.700;7.962;2023-12-29T12:04:34;98511.72;;;10.48;94.60
5238;BME280;2639;49.700;7.962;2023-12-29T12:05:45;98504.59;;;10.44;95.90
5238;BME280;2639;49.700;7.962;2023-12-29T12:06:47;98500.25;;;10.43;96.00
5238;BME280;2639;49.700;7.962;2023-12-29T12:07:57;98510.72;;;10.46;96.85
5238;BME280;2639;49.700;7.962;2023-12-29T12:09:15;98504.59;;;10.44;96.96
5238;BME280;2639;49.700;7.962;2023-12-29T12:10:30;98498.44;;;10.42;97.00
5238;BME280;2639;49.700;7.962;2023-12-29T12:11:41;98505.38;;;10.43;97.21
5238;BME280;2639;49.700;7.962;2023-12-29T12:12:45;98504.81;;;10.47;97.28
5238;BME280;2639;49.700;7.962;2023-12-29T12:13:47;98499.69;;;10.47;98.04
5238;BME280;2639;49.700;7.962;2023-12-29T12:14:51;98498.56;;;10.43;98.48
5238;BME280;2639;49.700;7.962;2023-12-29T12:15:53;98504.16;;;10.38;98.07
5238;BME280;2639;49.700;7.962;2023-12-29T12:16:56;98500.81;;;10.39;99.18
5238;BME280;2639;49.700;7.962;2023-12-29T12:18:00;98497.47;;;10.40;99.59
5238;BME280;2639;49.700;7.962;2023-12-29T12:19:06;98509.72;;;10.44;100.00
5238;BME280;2639;49.700;7.962;2023-12-29T12:20:09;98509.50;;;10.41;100.00
5238;BME280;2639;49.700;7.962;2023-12-29T12:21:12;98512.44;;;10.34;100.00
5238;BME280;2639;49.700;7.962;2023-12-29T12:22:17;98514.19;;;10.35;100.00
5238;BME280;2639;49.700;7.962;2023-12-29T12:23:24;98507.09;;;10.30;100.00
5238;BME280;2639;49.700;7.962;2023-12-29T12:24:31;98500.34;;;10.32;100.00
5238;BME280;2639;49.700;7.962;2023-12-29T12:25:38;98494.59;;;10.35;100.00
5238;BME280;2639;49.700;7.962;2023-12-29T12:26:42;98501.28;;;10.33;100.00
5238;BME280;2639;49.700;7.962;2023-12-29T12:27:46;98497.25;;;10.37;100.00
5238;BME280;2639;49.700;7.962;2023-12-29T12:28:52;98494.91;;;10.40;100.00
5238;BME280;2639;49.700;7.962;2023-12-29T12:29:56;98491.53;;;10.41;100.00
5238;BME280;2639;49.700;7.962;2023-12-29T12:31:05;98491.91;;;10.34;100.00
5238;BME280;2639;49.700;7.962;2023-12-29T12:32:11;98493.66;;;10.35;100.00
5238;BME280;2639;49.700;7.962;2023-12-29T12:33:14;98494.34;;;10.32;100.00
5238;BME280;2639;49.700;7.962;2023-12-29T12:34:18;98491.09;;;10.35;100.00
5238;BME280;2639;49.700;7.962;2023-12-29T12:35:23;98496.22;;;10.35;100.00
5238;BME280;2639;49.700;7.962;2023-12-29T12:36:28;98480.06;;;10.36;100.00
5238;BME280;2639;49.700;7.962;2023-12-29T12:37:31;98483.19;;;10.31;100.00
5238;BME280;2639;49.700;7.962;2023-12-29T12:38:37;98485.88;;;10.33;100.00
5238;BME280;2639;49.700;7.962;2023-12-29T12:39:41;98486.28;;;10.39;100.00
5238;BME280;2639;49.700;7.962;2023-12-29T12:40:45;98486.75;;;10.34;100.00
5238;BME280;2639;49.700;7.962;2023-12-29T12:41:49;98490.88;;;10.31;100.00
5238;BME280;2639;49.700;7.962;2023-12-29T12:42:52;98478.06;;;10.31;100.00
5238;BME280;2639;49.700;7.962;2023-12-29T12:44:01;98480.06;;;10.36;100.00
5238;BME280;2639;49.700;7.962;2023-12-29T12:45:13;98484.72;;;10.41;100.00
5238;BME280;2639;49.700;7.962;2023-12-29T12:46:23;98461.75;;;10.43;100.00
5238;BME280;2639;49.700;7.962;2023-12-29T12:47:32;98456.63;;;10.43;100.00
5238;BME280;2639;49.700;7.962;2023-12-29T12:48:42;98463.09;;;10.38;100.00
5238;BME280;2639;49.700;7.962;2023-12-29T12:49:46;98473.13;;;10.35;100.00
5238;BME280;2639;49.700;7.962;2023-12-29T12:50:50;98465.56;;;10.36;100.00
5238;BME280;2639;49.700;7.962;2023-12-29T12:51:54;98474.50;;;10.29;100.00
5238;BME280;2639;49.700;7.962;2023-12-29T12:52:58;98465.75;;;10.27;100.00
5238;BME280;2639;49.700;7.962;2023-12-29T12:54:07;98464.44;;;10.32;100.00
5238;BME280;2639;49.700;7.962;2023-12-29T12:55:12;98463.47;;;10.30;100.00
5238;BME280;2639;49.700;7.962;2023-12-29T12:56:18;98462.88;;;10.35;100.00
5238;BME280;2639;49.700;7.962;2023-12-29T12:57:21;98461.53;;;10.40;100.00
5238;BME280;2639;49.700;7.962;2023-12-29T12:58:26;98464.19;;;10.41;100.00
5238;BME280;2639;49.700;7.962;2023-12-29T12:59:32;98471.91;;;10.29;100.00
5238;BME280;2639;49.700;7.962;2023-12-29T13:00:37;98460.41;;;10.24;100.00
5238;BME280;2639;49.700;7.962;2023-12-29T13:01:41;98470.25;;;10.30;100.00
5238;BME280;2639;49.700;7.962;2023-12-29T13:02:46;98461.31;;;10.37;100.00
5238;BME280;2639;49.700;7.962;2023-12-29T13:03:49;98460.53;;;10.38;100.00
5238;BME280;2639;49.700;7.962;2023-12-29T13:04:54;98463.19;;;10.39;100.00
5238;BME280;2639;49.700;7.962;2023-12-29T13:05:58;98465.09;;;10.42;100.00
5238;BME280;2639;49.700;7.962;2023-12-29T13:07:03;98464.53;;;10.46;100.00
5238;BME280;2639;49.700;7.962;2023-12-29T13:08:06;98464.31;;;10.43;100.00
5238;BME280;2639;49.700;7.962;2023-12-29T13:09:14;98459.38;;;10.46;100.00
5238;BME280;2639;49.700;7.962;2023-12-29T13:10:22;98461.53;;;10.40;100.00
5238;BME280;2639;49.700;7.962;2023-12-29T13:11:26;98463.97;;;10.26;100.00
5238;BME280;2639;49.700;7.962;2023-12-29T13:12:30;98459.19;;;10.19;100.00
5238;BME280;2639;49.700;7.962;2023-12-29T13:13:36;98457.97;;;10.26;100.00
5238;BME280;2639;49.700;7.962;2023-12-29T13:14:39;98457.31;;;10.28;100.00
5238;BME280;2639;49.700;7.962;2023-12-29T13:15:46;98458.66;;;10.35;100.00
5238;BME280;2639;49.700;7.962;2023-12-29T13:16:50;98454.41;;;10.36;100.00
5238;BME280;2639;49.700;7.962;2023-12-29T13:17:54;98461.53;;;10.40;100.00
5238;BME280;2639;49.700;7.962;2023-12-29T13:19:05;98460.94;;;10.44;100.00
5238;BME280;2639;49.700;7.962;2023-12-29T13:20:15;98456.63;;;10.43;100.00
5238;BME280;2639;49.700;7.962;2023-12-29T13:21:19;98457.84;;;10.36;100.00
5238;BME280;2639;49.700;7.962;2023-12-29T13:22:23;98458.75;;;10.37;100.00
5238;BME280;2639;49.700;7.962;2023-12-29T13:23:27;98457.06;;;10.37;100.00
5238;BME280;2639;49.700;7.962;2023-12-29T13:24:32;98459.53;;;10.36;100.00
5238;BME280;2639;49.700;7.962;2023-12-29T13:25:36;98459.63;;;10.37;100.00
5238;BME280;2639;49.700;7.962;2023-12-29T13:26:44;98459.53;;;10.36;100.00
5238;BME280;2639;49.700;7.962;2023-12-29T13:27:50;98472.25;;;10.34;100.00
5238;BME280;2639;49.700;7.962;2023-12-29T13:28:54;98461.09;;;10.34;100.00
5238;BME280;2639;49.700;7.962;2023-12-29T13:29:58;98459.41;;;10.34;100.00
5238;BME280;2639;49.700;7.962;2023-12-29T13:31:02;98454.16;;;10.32;100.00
5238;BME280;2639;49.700;7.962;2023-12-29T13:32:09;98447.06;;;10.28;100.00
5238;BME280;2639;49.700;7.962;2023-12-29T13:33:18;98463.97;;;10.26;100.00
5238;BME280;2639;49.700;7.962;2023-12-29T13:34:32;98462.84;;;10.23;100.00
5238;BME280;2639;49.700;7.962;2023-12-29T13:35:44;98462.19;;;10.25;100.00
5238;BME280;2639;49.700;7.962;2023-12-29T13:37:02;98459.97;;;10.18;100.00
5238;BME280;2639;49.700;7.962;2023-12-29T13:38:10;98459.28;;;10.21;100.00
5238;BME280;2639;49.700;7.962;2023-12-29T13:39:21;98469.47;;;10.19;100.00
5238;BME280;2639;49.700;7.962;2023-12-29T13:40:37;98467.47;;;10.15;100.00
5238;BME280;2639;49.700;7.962;2023-12-29T13:41:44;98465.66;;;10.14;100.00
5238;BME280;2639;49.700;7.962;2023-12-29T13:42:51;98468.22;;;10.14;100.00
5238;BME280;2639;49.700;7.962;2023-12-29T13:43:57;98457.97;;;10.14;100.00
5238;BME280;2639;49.700;7.962;2023-12-29T13:45:04;98469.13;;;10.15;100.00
5238;BME280;2639;49.700;7.962;2023-12-29T13:46:09;98466.66;;;10.16;100.00
5238;BME280;2639;49.700;7.962;2023-12-29T13:47:15;98463.69;;;10.10;100.00
5238;BME280;2639;49.700;7.962;2023-12-29T13:48:20;98462.22;;;10.02;100.00
5238;BME280;2639;49.700;7.962;2023-12-29T13:49:25;98462.22;;;10.02;100.00
5238;BME280;2639;49.700;7.962;2023-12-29T13:50:28;98455.88;;;9.97;100.00
5238;BME280;2639;49.700;7.962;2023-12-29T13:51:32;98463.69;;;9.98;100.00
5238;BME280;2639;49.700;7.962;2023-12-29T13:52:35;98463.56;;;9.97;100.00
5238;BME280;2639;49.700;7.962;2023-12-29T13:53:41;98457.75;;;9.99;100.00
5238;BME280;2639;49.700;7.962;2023-12-29T13:54:45;98463.78;;;10.00;100.00
5238;BME280;2639;49.700;7.962;2023-12-29T13:55:51;98467.59;;;10.05;100.00
5238;BME280;2639;49.700;7.962;2023-12-29T13:56:54;98468.69;;;10.08;100.00
5238;BME280;2639;49.700;7.962;2023-12-29T13:57:58;98468.81;;;10.10;100.00
5238;BME280;2639;49.700;7.962;2023-12-29T13:59:02;98466.25;;;10.10;100.00
5238;BME280;2639;49.700;7.962;2023-12-29T14:00:17;98477.06;;;10.06;100.00
5238;BME280;2639;49.700;7.962;2023-12-29T14:01:20;98467.59;;;10.05;100.00
5238;BME280;2639;49.700;7.962;2023-12-29T14:02:28;98467.59;;;10.05;100.00
5238;BME280;2639;49.700;7.962;2023-12-29T14:03:40;98464.09;;;10.04;100.00
5238;BME280;2639;49.700;7.962;2023-12-29T14:04:47;98460.66;;;10.04;100.00
5238;BME280;2639;49.700;7.962;2023-12-29T14:05:52;98473.13;;;10.11;100.00
5238;BME280;2639;49.700;7.962;2023-12-29T14:07:01;98478.72;;;10.17;100.00
5238;BME280;2639;49.700;7.962;2023-12-29T14:08:08;98472.25;;;10.22;100.00
5238;BME280;2639;49.700;7.962;2023-12-29T14:09:15;98466.09;;;10.20;100.00
5238;BME280;2639;49.700;7.962;2023-12-29T14:10:19;98467.09;;;10.22;100.00
5238;BME280;2639;49.700;7.962;2023-12-29T14:11:24;98471.13;;;10.19;100.00
5238;BME280;2639;49.700;7.962;2023-12-29T14:12:28;98467.47;;;10.15;100.00
5238;BME280;2639;49.700;7.962;2023-12-29T14:13:32;98466.66;;;10.16;100.00
5238;BME280;2639;49.700;7.962;2023-12-29T14:14:36;98475.91;;;10.14;100.00
5238;BME280;2639;49.700;7.962;2023-12-29T14:15:41;98465.09;;;10.18;100.00
5238;BME280;2639;49.700;7.962;2023-12-29T14:16:44;98465.97;;;10.19;100.00
5238;BME280;2639;49.700;7.962;2023-12-29T14:17:49;98476.38;;;10.20;100.00
5238;BME280;2639;49.700;7.962;2023-12-29T14:18:54;98468.00;;;10.23;100.00
5238;BME280;2639;49.700;7.962;2023-12-29T14:19:57;98471.69;;;10.26;100.00
5238;BME280;2639;49.700;7.962;2023-12-29T14:21:20;98468.13;;;10.24;100.00
5238;BME280;2639;49.700;7.962;2023-12-29T14:22:24;98476.50;;;10.22;100.00
5238;BME280;2639;49.700;7.962;2023-12-29T14:23:29;98477.16;;;10.19;100.00
5238;BME280;2639;49.700;7.962;2023-12-29T14:24:31;98470.56;;;10.11;100.00
5238;BME280;2639;49.700;7.962;2023-12-29T14:25:35;98469.34;;;10.06;100.00
5238;BME280;2639;49.700;7.962;2023-12-29T14:26:41;98478.06;;;10.08;100.00
5238;BME280;2639;49.700;7.962;2023-12-29T14:27:51;98479.63;;;10.06;100.00
5238;BME280;2639;49.700;7.962;2023-12-29T14:29:01;98479.81;;;10.09;100.00
5238;BME280;2639;49.700;7.962;2023-12-29T14:30:04;98479.81;;;10.09;100.00
5238;BME280;2639;49.700;7.962;2023-12-29T14:31:20;98477.25;;;10.09;100.00
5238;BME280;2639;49.700;7.962;2023-12-29T14:32:22;98488.44;;;10.09;100.00
5238;BME280;2639;49.700;7.962;2023-12-29T14:33:25;98474.50;;;10.06;100.00
5238;BME280;2639;49.700;7.962;2023-12-29T14:34:27;98483.94;;;10.07;100.00
5238;BME280;2639;49.700;7.962;2023-12-29T14:35:30;98474.38;;;10.04;100.00
5238;BME280;2639;49.700;7.962;2023-12-29T14:36:34;98471.81;;;10.04;100.00
5238;BME280;2639;49.700;7.962;2023-12-29T14:37:36;98477.25;;;10.09;100.00
5238;BME280;2639;49.700;7.962;2023-12-29T14:38:39;98466.78;;;10.06;100.00
5238;BME280;2639;49.700;7.962;2023-12-29T14:39:47;98469.81;;;10.00;100.00
5238;BME280;2639;49.700;7.962;2023-12-29T14:40:49;98470.47;;;9.98;100.00
5238;BME280;2639;49.700;7.962;2023-12-29T14:41:53;98462.00;;;9.99;100.00
5238;BME280;2639;49.700;7.962;2023-12-29T14:42:55;98464.44;;;9.97;100.00
5238;BME280;2639;49.700;7.962;2023-12-29T14:43:58;98468.13;;;10.01;100.00
5238;BME280;2639;49.700;7.962;2023-12-29T14:45:01;98465.34;;;9.98;100.00
5238;BME280;2639;49.700;7.962;2023-12-29T14:46:04;98458.97;;;9.93;100.00
5238;BME280;2639;49.700;7.962;2023-12-29T14:47:06;98468.25;;;9.90;100.00
5238;BME280;2639;49.700;7.962;2023-12-29T14:48:09;98471.59;;;9.89;100.00
5238;BME280;2639;49.700;7.962;2023-12-29T14:49:12;98454.66;;;9.92;100.00
5238;BME280;2639;49.700;7.962;2023-12-29T14:50:15;98463.09;;;9.90;100.00
5238;BME280;2639;49.700;7.962;2023-12-29T14:51:17;98459.31;;;9.85;100.00
5238;BME280;2639;49.700;7.962;2023-12-29T14:52:20;98459.13;;;9.82;99.97
5238;BME280;2639;49.700;7.962;2023-12-29T14:53:22;98457.44;;;9.83;99.99
5238;BME280;2639;49.700;7.962;2023-12-29T14:54:24;98454.66;;;9.80;98.96
5238;BME280;2639;49.700;7.962;2023-12-29T14:55:27;98447.06;;;9.81;99.43
5238;BME280;2639;49.700;7.962;2023-12-29T14:56:29;98455.53;;;9.80;99.60
5238;BME280;2639;49.700;7.962;2023-12-29T14:57:33;98448.84;;;9.82;99.55
5238;BME280;2639;49.700;7.962;2023-12-29T14:58:35;98452.44;;;9.84;99.86
5238;BME280;2639;49.700;7.962;2023-12-29T14:59:38;98440.91;;;9.79;99.39
5238;BME280;2639;49.700;7.962;2023-12-29T15:00:43;98450.19;;;9.77;99.55
5238;BME280;2639;49.700;7.962;2023-12-29T15:01:48;98442.59;;;9.79;99.29
5238;BME280;2639;49.700;7.962;2023-12-29T15:02:50;98441.72;;;9.78;98.43
5238;BME280;2639;49.700;7.962;2023-12-29T15:03:53;98438.34;;;9.79;98.75
5238;BME280;2639;49.700;7.962;2023-12-29T15:04:55;98441.94;;;9.81;99.63
5238;BME280;2639;49.700;7.962;2023-12-29T15:05:58;98435.91;;;9.81;99.40
5238;BME280;2639;49.700;7.962;2023-12-29T15:07:01;98441.94;;;9.81;98.74
5238;BME280;2639;49.700;7.962;2023-12-29T15:08:04;98445.16;;;9.79;98.35
5238;BME280;2639;49.700;7.962;2023-12-29T15:09:06;98445.28;;;9.80;98.29
5238;BME280;2639;49.700;7.962;2023-12-29T15:10:12;98442.59;;;9.79;98.82
5238;BME280;2639;49.700;7.962;2023-12-29T15:11:14;98439.69;;;9.74;97.85
5238;BME280;2639;49.700;7.962;2023-12-29T15:12:16;98451.09;;;9.78;99.03
5238;BME280;2639;49.700;7.962;2023-12-29T15:13:20;98448.41;;;9.76;98.58
5238;BME280;2639;49.700;7.962;2023-12-29T15:14:22;98442.50;;;9.77;98.99
5238;BME280;2639;49.700;7.962;2023-12-29T15:15:28;98451.97;;;9.78;98.20
5238;BME280;2639;49.700;7.962;2023-12-29T15:16:29;98445.16;;;9.79;98.60
5238;BME280;2639;49.700;7.962;2023-12-29T15:17:32;98445.28;;;9.80;98.57
5238;BME280;2639;49.700;7.962;2023-12-29T15:18:35;98433.47;;;9.82;98.10
5238;BME280;2639;49.700;7.962;2023-12-29T15:19:37;98443.06;;;9.85;97.84
5238;BME280;2639;49.700;7.962;2023-12-29T15:20:40;98445.75;;;9.86;98.13
5238;BME280;2639;49.700;7.962;2023-12-29T15:21:42;98449.06;;;9.85;99.01
5238;BME280;2639;49.700;7.962;2023-12-29T15:22:45;98456.88;;;9.87;97.89
5238;BME280;2639;49.700;7.962;2023-12-29T15:23:47;98457.78;;;9.87;97.35
5238;BME280;2639;49.700;7.962;2023-12-29T15:24:50;98441.25;;;9.84;97.33
5238;BME280;2639;49.700;7.962;2023-12-29T15:25:52;98444.63;;;9.83;97.76
5238;BME280;2639;49.700;7.962;2023-12-29T15:26:55;98441.94;;;9.81;97.86
5238;BME280;2639;49.700;7.962;2023-12-29T15:27:56;98441.94;;;9.81;98.79
5238;BME280;2639;49.700;7.962;2023-12-29T15:29:00;98435.16;;;9.82;98.12
5238;BME280;2639;49.700;7.962;2023-12-29T15:30:03;98446.38;;;9.84;98.33
5238;BME280;2639;49.700;7.962;2023-12-29T15:31:06;98435.25;;;9.83;98.28
5238;BME280;2639;49.700;7.962;2023-12-29T15:32:09;98440.38;;;9.83;98.26
5238;BME280;2639;49.700;7.962;2023-12-29T15:33:11;98449.53;;;9.80;98.53
5238;BME280;2639;49.700;7.962;2023-12-29T15:34:14;98448.41;;;9.76;98.45
5238;BME280;2639;49.700;7.962;2023-12-29T15:35:16;98446.63;;;9.75;98.04
5238;BME280;2639;49.700;7.962;2023-12-29T15:36:19;98445.72;;;9.75;98.07
5238;BME280;2639;49.700;7.962;2023-12-29T15:37:23;98445.06;;;9.77;98.10
5238;BME280;2639;49.700;7.962;2023-12-29T15:38:26;98436.59;;;9.78;96.95
5238;BME280;2639;49.700;7.962;2023-12-29T15:39:28;98432.25;;;9.77;96.21
5238;BME280;2639;49.700;7.962;2023-12-29T15:40:31;98441.03;;;9.81;96.77
5238;BME280;2639;49.700;7.962;2023-12-29T15:41:34;98432.47;;;9.80;96.75
5238;BME280;2639;49.700;7.962;2023-12-29T15:42:37;98436.81;;;9.81;96.96
5238;BME280;2639;49.700;7.962;2023-12-29T15:43:38;98442.25;;;9.86;96.91
5238;BME280;2639;49.700;7.962;2023-12-29T15:44:43;98442.38;;;9.87;97.10
5238;BME280;2639;49.700;7.962;2023-12-29T15:45:45;98440.16;;;9.92;96.77
5238;BME280;2639;49.700;7.962;2023-12-29T15:46:48;98432.81;;;9.85;95.66
5238;BME280;2639;49.700;7.962;2023-12-29T15:47:49;98427.88;;;9.88;95.45
5238;BME280;2639;49.700;7.962;2023-12-29T15:48:52;98422.06;;;9.90;95.68
5238;BME280;2639;49.700;7.962;2023-12-29T15:49:54;98422.31;;;9.94;95.32
5238;BME280;2639;49.700;7.962;2023-12-29T15:50:57;98425.66;;;9.93;95.87
5238;BME280;2639;49.700;7.962;2023-12-29T15:51:59;98419.50;;;9.90;95.31
5238;BME280;2639;49.700;7.962;2023-12-29T15:53:02;98425.66;;;9.93;94.76
5238;BME280;2639;49.700;7.962;2023-12-29T15:54:04;98415.84;;;9.87;94.54
5238;BME280;2639;49.700;7.962;2023-12-29T15:55:07;98428.56;;;9.85;95.26
5238;BME280;2639;49.700;7.962;2023-12-29T15:56:16;98423.44;;;9.85;95.30
5238;BME280;2639;49.700;7.962;2023-12-29T15:57:20;98413.84;;;9.83;94.54
5238;BME280;2639;49.700;7.962;2023-12-29T15:58:22;98417.84;;;9.79;93.81
5238;BME280;2639;49.700;7.962;2023-12-29T15:59:24;98424.56;;;9.77;94.59
5238;BME280;2639;49.700;7.962;2023-12-29T16:00:28;98410.94;;;9.78;94.20
5238;BME280;2639;49.700;7.962;2023-12-29T16:01:31;98421.41;;;9.81;94.26
5238;BME280;2639;49.700;7.962;2023-12-29T16:02:34;98418.19;;;9.84;94.93
5238;BME280;2639;49.700;7.962;2023-12-29T16:03:37;98418.97;;;9.83;94.87
5238;BME280;2639;49.700;7.962;2023-12-29T16:04:39;98418.09;;;9.82;94.16